Accueil
METAR-TAF:

METAR-TAF

Aéroports :

Aéroport international Maiquetía - Simón Bolívar

Caracas, Venezuela

latitude: 10-36N, longitude: 066-59W, altitude: 43 m

Observation

Le bulletin a été fait il y a 40 minutes, à 00:00 UTC
Vent 4 kt de est/sud-est
Température 28°C
Humidité 84%
Pression 1009 hPa
Visibilité 10 km ou plus
Nuages épars à une hauteur de 1600 ft

METAR: SVMI 180000Z 11004KT 9999 SCT016 28/25 Q1009

Heure: 20:40 (00:40 UTC)

Prévision

Le bulletin a été fait il y a 1 heure et 25 minutes, à 23:15 UTC
Prévision valable du 17 à 00 UTC au 18 à 00 UTC
Vent 2 kt de est/nord-est
Visibilité 10 km ou plus
Evoluant progressivement
du 17 à 00 UTC au 17 à 00 UTC
Vent 3 kt de sud/sud-ouest
Visibilité 10 km ou plus
Quelques nuages à une hauteur de 1600 ft
Nuages épars à une hauteur de 30000 ft

TAF: SVMI 162315Z 1700/1800 07002KT 9999 BNK016 TX32/19Z TN22/08Z BECMG 1700/1700 20003KT 9999 FEW016 SCT300

Observations et prévisions météorologiques de plus de 4000 aéroports (messages METAR et TAF).

Les stations disponibles sont représentées par des disques jaunes et rouges sur la carte.

Passer la souris dessus pour voir le nom de la station.

Cliquer dessus pour voir les observations et prévisions météorologiques.

Pour changer de carte: cliquez sur les boutons verts avec une croix noire pour zoomer, sur le bouton vert avec un tiret pour effectuer un zoom arrière, ou sur les flèches vertes pour les cartes adjacentes.


METAR-TAF: